Latest Weather Observations for Borroloola

IDD60801

Issued at 7:35 pm CST Tuesday 21 October 2014 (issued every 30 minutes, with the page automatically refreshed every 10 minutes)

About weather observations | Map of weather stations | Latest weather observations for NT | Other Formats
Station Details ID: 014723 Name: BORROLOOLA AIRPORT Lat: -16.08 Lon: 136.30 Height: 16.1 m
Data from the previous 72 hours. | See also: Recent months at Borroloola
Date/Time
CST
Temp
°C
App
Temp
°C
Dew
Point
Rel
Hum
%
Delta-T
°C
Wind Press
QNH
hPa
Press
MSL
hPa
Rain
since 9 am
mm
Dir
 
Spd
km/h
Gust
km/h
Spd
kts
Gust
kts
21/07:30pm 27.7 28.6 20.0 63 5.0 NE 15 20 8 11 1014.4 1014.3 0.0
21/07:00pm 28.2 28.3 18.3 55 6.3 NNE 15 24 8 13 1014.2 1014.1 0.0
21/06:30pm 28.6 28.1 18.7 55 6.4 NNE 19 28 10 15 1013.8 1013.7 0.0
21/06:00pm 29.6 28.9 18.7 52 7.0 NNE 20 30 11 16 1013.5 1013.4 0.0
21/05:30pm 31.5 30.5 16.6 40 9.4 NE 17 28 9 15 1013.0 1012.9 0.0
21/05:00pm 32.6 30.6 16.4 37 10.2 NE 22 32 12 17 1012.5 1012.4 0.0
21/04:30pm 33.1 31.3 16.0 35 10.7 NE 20 32 11 17 1012.1 1012.0 0.0
21/04:00pm 34.2 32.2 16.5 34 11.2 NE 22 33 12 18 1012.0 1011.9 0.0
21/03:30pm 34.5 32.9 15.9 33 11.7 ENE 19 32 10 17 1012.0 1011.9 0.0
21/03:00pm 33.8 31.7 15.3 33 11.5 ENE 20 32 11 17 1012.2 1012.1 0.0
21/02:30pm 34.6 32.6 15.5 32 12.0 NE 20 33 11 18 1012.5 1012.4 0.0
21/02:00pm 35.2 34.4 15.0 30 12.6 NNE 13 24 7 13 1012.7 1012.6 0.0
21/01:30pm 34.0 32.1 12.9 28 12.7 NE 15 22 8 12 1013.3 1013.2 0.0
21/01:00pm 33.6 32.4 14.1 30 11.9 N 13 24 7 13 1013.8 1013.7 0.0
21/12:30pm 33.4 31.3 13.5 30 12.1 ENE 17 28 9 15 1014.4 1014.3 0.0
21/12:00pm 35.8 34.2 13.9 27 13.5 E 15 24 8 13 1015.0 1014.9 0.0
21/11:30am 34.1 31.4 13.0 28 12.7 ENE 19 39 10 21 1015.6 1015.5 0.0
21/11:00am 34.1 30.3 12.4 26 13.0 ENE 24 35 13 19 1016.1 1016.0 0.0
21/10:30am 33.3 29.3 11.8 27 12.7 ENE 24 35 13 19 1016.2 1016.1 0.0
21/10:00am 33.4 31.4 14.0 31 11.8 ENE 17 26 9 14 1016.4 1016.3 0.0
21/09:30am 31.8 32.1 16.1 38 9.8 SSW 9 15 5 8 1016.0 1015.9 0.0
21/09:00am 29.4 29.5 16.6 46 8.0 SW 11 17 6 9 1016.3 1016.2 0.0
21/08:30am 28.5 28.8 17.1 50 7.2 SSW 11 15 6 8 1016.2 1016.1 0.0
21/08:00am 26.5 26.3 18.6 62 5.0 SSW 17 20 9 11 1016.1 1016.0 0.0
21/07:30am 25.3 26.3 19.4 70 3.8 SSW 13 17 7 9 1016.1 1016.0 0.0
21/07:00am 22.5 25.1 19.3 82 2.0 S 4 9 2 5 1015.8 1015.7 0.0
21/06:30am 19.4 21.6 16.6 84 1.7 CALM 0 0 0 0 1015.2 1015.1 0.0
21/06:00am 18.8 20.7 15.7 82 1.8 CALM 0 0 0 0 1015.1 1015.0 0.0
21/05:30am 19.4 21.6 16.6 84 1.7 CALM 0 0 0 0 1014.7 1014.6 0.0
21/05:00am 19.0 21.0 16.0 83 1.8 CALM 0 0 0 0 1014.5 1014.4 0.0
21/04:30am 19.4 21.5 16.2 82 1.9 CALM 0 0 0 0 1014.2 1014.1 0.0
21/04:00am 19.8 21.8 15.9 78 2.3 CALM 0 0 0 0 1014.0 1013.9 0.0
21/03:30am 20.1 21.2 16.7 81 2.1 NNE 6 7 3 4 1013.9 1013.8 0.0
21/03:00am 20.3 22.8 17.3 83 1.8 CALM 0 0 0 0 1013.7 1013.6 0.0
21/02:30am 20.7 22.8 16.3 76 2.6 CALM 0 0 0 0 1013.8 1013.7 0.0
21/02:00am 21.2 23.9 17.8 81 2.1 CALM 0 0 0 0 1014.0 1013.9 0.0
21/01:30am 21.5 24.0 17.3 77 2.6 NNE 0 0 0 0 1014.1 1014.0 0.0
21/01:00am 21.9 24.1 16.6 72 3.2 CALM 0 0 0 0 1014.4 1014.3 0.0
21/12:30am 22.5 25.1 17.6 74 3.0 CALM 0 0 0 0 1014.6 1014.5 0.0
21/12:00am 23.7 26.9 18.8 74 3.1 NNE 0 0 0 0 1015.0 1014.9 0.0
 
Date/Time
CST
Temp
°C
App
Temp
°C
Dew
Point
Rel
Hum
%
Delta-T
°C
Wind Press
QNH
hPa
Press
MSL
hPa
Rain
since 9 am
mm
Dir
 
Spd
km/h
Gust
km/h
Spd
kts
Gust
kts
20/11:30pm 24.1 27.4 19.0 73 3.2 CALM 0 0 0 0 1015.4 1015.3 0.0
20/11:00pm 24.3 27.6 19.1 73 3.3 CALM 0 0 0 0 1015.6 1015.5 0.0
20/10:30pm 24.6 27.9 19.0 71 3.6 CALM 0 0 0 0 1015.5 1015.4 0.0
20/10:00pm 24.8 26.8 19.2 71 3.6 NNE 7 9 4 5 1015.4 1015.3 0.0
20/09:30pm 25.4 27.5 19.3 69 3.9 NNE 7 11 4 6 1015.4 1015.3 0.0
20/09:00pm 25.8 27.3 19.0 66 4.4 NNE 9 13 5 7 1015.0 1014.9 0.0
20/08:30pm 26.1 26.7 18.5 63 4.8 NNE 13 19 7 10 1014.7 1014.6 0.0
20/08:00pm 26.6 26.6 18.2 60 5.3 NNE 15 20 8 11 1014.4 1014.3 0.0
20/07:30pm 26.9 26.7 17.7 57 5.8 NNE 15 20 8 11 1014.0 1013.9 0.0
20/07:00pm 27.4 26.8 18.4 58 5.7 N 19 30 10 16 1013.5 1013.4 0.0
20/06:30pm 28.1 26.9 18.5 56 6.1 NNE 22 26 12 14 1013.1 1013.0 0.0
20/06:00pm 29.6 28.5 17.4 47 7.7 NE 19 26 10 14 1012.6 1012.5 0.0
20/05:30pm 30.9 29.5 16.5 42 9.0 NE 19 28 10 15 1012.5 1012.4 0.0
20/05:00pm 31.5 29.8 16.3 40 9.5 NNE 20 28 11 15 1012.2 1012.1 0.0
20/04:30pm 31.8 30.0 16.9 40 9.4 NNE 22 32 12 17 1012.3 1012.2 0.0
20/04:00pm 32.0 29.9 17.1 41 9.5 NNE 24 35 13 19 1012.2 1012.1 0.0
20/03:30pm 32.1 29.6 17.2 41 9.5 NNE 26 35 14 19 1012.2 1012.1 0.0
20/03:00pm 33.9 31.6 15.8 33 11.4 NNE 22 28 12 15 1012.3 1012.2 0.0
20/02:30pm 33.5 31.5 15.5 34 11.2 NE 20 35 11 19 1012.7 1012.6 0.0
20/02:00pm 32.5 30.7 15.9 36 10.4 NE 20 32 11 17 1013.1 1013.0 0.0
20/01:36pm 32.9 29.4 15.4 35 10.9 ENE 28 61 15 33 1013.4 1013.3 0.0
20/01:30pm 33.0 31.0 15.5 35 10.9 ENE 20 41 11 22 1013.5 1013.4 0.0
20/01:00pm 34.2 32.8 15.6 32 11.7 ENE 17 28 9 15 1014.1 1014.0 0.0
20/12:30pm 33.0 31.0 16.4 37 10.5 NE 22 33 12 18 1014.7 1014.6 0.0
20/12:00pm 33.2 31.6 16.5 36 10.6 ENE 20 33 11 18 1015.5 1015.4 0.0
20/11:30am 32.3 30.3 17.4 41 9.5 NE 24 33 13 18 1016.0 1015.9 0.0
20/11:00am 32.3 29.8 16.2 38 10.1 ENE 24 41 13 22 1016.2 1016.1 0.0
20/10:30am 31.8 28.5 14.0 34 10.8 NE 24 37 13 20 1016.5 1016.4 0.0
20/10:00am 32.7 29.2 12.3 28 12.1 E 22 35 12 19 1016.4 1016.3 0.0
20/09:30am 31.8 27.2 11.0 28 12.0 E 26 39 14 21 1016.4 1016.3 0.0
20/09:00am 30.6 29.6 13.4 35 10.3 S 11 15 6 8 1015.5 1015.4 0.0
20/08:30am 28.8 29.0 16.7 48 7.6 S 11 15 6 8 1015.7 1015.6 0.0
20/08:00am 26.5 27.5 17.8 58 5.5 SSW 9 15 5 8 1015.7 1015.6 0.0
20/07:30am 24.5 25.9 18.7 70 3.7 SSW 9 13 5 7 1015.6 1015.5 0.0
20/07:00am 21.4 24.2 18.0 81 2.1 CALM 0 6 0 3 1015.2 1015.1 0.0
20/06:30am 18.6 20.7 16.2 86 1.4 CALM 0 0 0 0 1014.9 1014.8 0.0
20/06:00am 18.2 20.1 15.8 86 1.4 CALM 0 0 0 0 1014.5 1014.4 0.0
20/05:30am 17.3 18.8 14.6 84 1.6 CALM 0 0 0 0 1014.3 1014.2 0.0
20/05:00am 18.4 20.3 15.8 85 1.5 CALM 0 6 0 3 1014.1 1014.0 0.0
20/04:30am 18.6 20.2 14.9 79 2.2 CALM 0 0 0 0 1013.9 1013.8 0.0
20/04:00am 18.7 20.5 15.6 82 1.8 CALM 0 0 0 0 1013.7 1013.6 0.0
20/03:30am 19.0 20.8 15.5 80 2.1 CALM 0 0 0 0 1013.6 1013.5 0.0
20/03:00am 19.1 21.1 16.0 82 1.8 CALM 0 0 0 0 1013.6 1013.5 0.0
20/02:30am 19.6 21.6 15.9 79 2.2 CALM 0 0 0 0 1013.7 1013.6 0.0
20/02:00am 20.2 22.2 16.0 77 2.5 CALM 0 0 0 0 1014.0 1013.9 0.0
20/01:30am 20.4 22.6 16.6 79 2.3 CALM 0 0 0 0 1014.3 1014.2 0.0
20/01:00am 21.0 23.4 17.0 78 2.4 CALM 0 0 0 0 1014.6 1014.5 0.0
20/12:30am 21.3 23.4 16.3 73 3.0 CALM 0 0 0 0 1014.8 1014.7 0.0
20/12:00am 21.5 23.6 16.2 72 3.2 CALM 0 0 0 0 1015.3 1015.2 0.0
 
Date/Time
CST
Temp
°C
App
Temp
°C
Dew
Point
Rel
Hum
%
Delta-T
°C
Wind Press
QNH
hPa
Press
MSL
hPa
Rain
since 9 am
mm
Dir
 
Spd
km/h
Gust
km/h
Spd
kts
Gust
kts
19/11:30pm 22.0 24.6 17.4 75 2.8 CALM 0 0 0 0 1015.5 1015.4 0.0
19/11:00pm 23.4 26.3 18.1 72 3.3 CALM 0 0 0 0 1015.7 1015.6 0.0
19/10:30pm 23.9 26.8 18.3 71 3.5 CALM 0 0 0 0 1015.9 1015.8 0.0
19/10:00pm 24.4 26.3 18.6 70 3.7 NE 6 9 3 5 1015.9 1015.8 0.0
19/09:30pm 24.8 26.1 18.5 68 4.0 NE 9 13 5 7 1015.9 1015.8 0.0
19/09:00pm 25.2 26.0 18.2 65 4.4 NE 11 17 6 9 1015.5 1015.4 0.0
19/08:30pm 25.8 26.2 18.2 63 4.8 NE 13 20 7 11 1015.2 1015.1 0.0
19/08:00pm 26.1 26.3 17.7 60 5.3 NE 13 19 7 10 1014.9 1014.8 0.0
19/07:30pm 26.8 25.6 17.0 55 6.1 NE 19 26 10 14 1014.6 1014.5 0.0
19/07:00pm 27.3 26.8 16.0 50 6.9 NE 13 20 7 11 1014.3 1014.2 0.0
19/06:30pm 28.1 26.2 15.1 45 7.9 NE 19 26 10 14 1014.0 1013.9 0.0
19/06:00pm 28.7 26.1 14.9 43 8.4 NE 22 32 12 17 1013.6 1013.5 0.0
19/05:30pm 29.6 27.7 15.7 43 8.6 NE 20 30 11 16 1013.3 1013.2 0.0
19/05:00pm 31.0 28.6 15.4 38 9.6 NE 22 32 12 17 1012.8 1012.7 0.0
19/04:30pm 31.3 28.6 15.7 39 9.7 NNE 24 37 13 20 1012.6 1012.5 0.0
19/04:00pm 32.2 30.1 16.1 38 10.1 NE 22 32 12 17 1012.4 1012.3 0.0
19/03:30pm 31.8 29.1 15.7 37 10.0 NE 24 32 13 17 1012.5 1012.4 0.0
19/03:00pm 33.3 30.8 16.2 36 10.8 ENE 24 37 13 20 1012.6 1012.5 0.0
19/02:30pm 33.0 30.6 16.4 37 10.5 ENE 24 37 13 20 1012.7 1012.6 0.0
19/02:00pm 32.6 29.7 16.0 36 10.4 NNE 26 35 14 19 1013.1 1013.0 0.0
19/01:30pm 33.6 31.7 17.7 38 10.2 ENE 24 35 13 19 1013.5 1013.4 0.0
19/01:00pm 33.3 31.7 18.3 41 9.7 NE 24 37 13 20 1013.9 1013.8 0.0
19/12:30pm 33.9 31.8 17.2 37 10.7 ENE 24 39 13 21 1014.3 1014.2 0.0
19/12:00pm 33.0 30.4 16.8 38 10.3 ENE 26 39 14 21 1014.8 1014.7 0.0
19/11:30am 31.0 30.0 18.0 45 8.3 NE 20 28 11 15 1015.3 1015.2 0.0
19/11:00am 32.0 30.8 19.3 47 8.3 NE 24 41 13 22 1015.9 1015.8 0.0
19/10:30am 30.9 29.2 18.9 48 7.8 NE 26 37 14 20 1016.2 1016.1 0.0
19/10:00am 30.9 30.0 19.9 52 7.2 NE 24 33 13 18 1016.2 1016.1 0.0
19/09:30am 29.2 27.1 18.9 53 6.7 ENE 28 41 15 22 1016.4 1016.3 0.0
19/09:00am 28.8 26.4 18.3 53 6.7 ENE 28 39 15 21 1016.2 1016.1 0.0
19/08:30am 28.3 29.8 19.8 60 5.5 ESE 11 19 6 10 1015.9 1015.8 0.0
19/08:00am 25.5 28.6 21.0 76 3.0 SSW 6 9 3 5 1015.1 1015.0 0.0
19/07:30am 24.1 27.0 21.0 83 2.0 SSW 7 11 4 6 1014.9 1014.8 0.0
19/07:00am 21.6 24.6 19.3 87 1.5 N 2 7 1 4 1014.7 1014.6 0.0
19/06:30am 19.9 22.7 18.0 89 1.2 CALM 0 2 0 1 1014.5 1014.4 0.0
19/06:00am 19.2 20.9 16.1 82 1.8 S 2 9 1 5 1014.1 1014.0 0.0
19/05:30am 20.3 23.2 18.1 87 1.4 CALM 0 0 0 0 1014.2 1014.1 0.0
19/05:00am 20.0 22.7 17.8 87 1.4 CALM 0 0 0 0 1013.8 1013.7 0.0
19/04:30am 20.4 23.1 17.8 85 1.6 CALM 0 0 0 0 1013.6 1013.5 0.0
19/04:00am 21.0 23.6 17.6 81 2.1 CALM 0 0 0 0 1013.4 1013.3 0.0
19/03:30am 21.5 24.4 18.1 81 2.1 CALM 0 0 0 0 1013.4 1013.3 0.0
19/03:00am 22.2 25.5 19.0 82 2.0 CALM 0 0 0 0 1013.3 1013.2 0.0
19/02:30am 21.9 25.1 18.9 83 1.9 CALM 0 0 0 0 1013.4 1013.3 0.0
19/02:00am 22.1 24.3 19.1 83 1.9 S 6 7 3 4 1013.6 1013.5 0.0
19/01:30am 22.9 25.4 19.9 83 1.9 SE 6 9 3 5 1013.9 1013.8 0.0
19/01:00am 24.5 27.4 21.8 85 1.8 E 9 11 5 6 1014.1 1014.0 0.0
19/12:30am 23.1 25.9 20.4 85 1.7 E 6 7 3 4 1014.3 1014.2 0.0
19/12:00am 22.6 25.0 20.1 86 1.6 ESE 7 9 4 5 1014.5 1014.4 0.0
 
Date/Time
CST
Temp
°C
App
Temp
°C
Dew
Point
Rel
Hum
%
Delta-T
°C
Wind Press
QNH
hPa
Press
MSL
hPa
Rain
since 9 am
mm
Dir
 
Spd
km/h
Gust
km/h
Spd
kts
Gust
kts
18/11:30pm 22.5 26.0 19.5 83 1.9 CALM 0 0 0 0 1014.6 1014.5 0.0
18/11:00pm 23.2 27.1 20.3 84 1.9 CALM 0 0 0 0 1014.6 1014.5 0.0
18/10:30pm 24.5 28.4 21.8 85 1.8 NNE 4 7 2 4 1014.7 1014.6 0.0
18/10:00pm 24.9 28.3 21.6 82 2.2 NE 6 7 3 4 1014.8 1014.7 0.0
18/09:30pm 24.9 27.9 21.2 80 2.4 NNE 7 11 4 6 1014.7 1014.6 0.0
18/09:00pm 25.4 27.9 21.1 77 2.8 NE 9 11 5 6 1014.6 1014.5 0.0
18/08:30pm 26.0 28.3 20.6 72 3.5 NE 9 13 5 7 1014.4 1014.3 0.0
18/08:00pm 26.6 27.9 19.2 64 4.8 NNE 11 15 6 8 1014.0 1013.9 0.0

Other Formats:

Comma delimited format used in spreadsheet applications
http://www.bom.gov.au/fwo/IDD60801/IDD60801.94152.axf

JavaScript Object Notation format (JSON) in row-major order
http://www.bom.gov.au/fwo/IDD60801/IDD60801.94152.json